Time,TemperatureF,DewpointF,PressureIn,WindDirection,WindDirectionDegrees,WindSpeedMPH,WindSpeedGustMPH,Humidity,HourlyPrecipIn,Conditions,Clouds,dailyrainin,SoftwareType,DateUTC
2013-04-25 00:03:00,38.0,33.0,30.15,SW,215,1.0,3.0,83,0.00,,,0.00,,2013-04-25 04:03:00,
2013-04-25 00:12:00,38.0,33.0,30.15,SW,215,1.0,3.0,83,0.00,,,0.00,,2013-04-25 04:12:00,
2013-04-25 00:23:00,38.0,33.0,30.15,SW,215,0.0,3.0,83,0.00,,,0.00,,2013-04-25 04:23:00,
2013-04-25 00:32:00,38.0,33.0,30.15,SW,215,0.0,2.0,83,0.00,,,0.00,,2013-04-25 04:32:00,
2013-04-25 00:43:00,38.0,33.0,30.15,SW,215,0.0,2.0,83,0.00,,,0.00,,2013-04-25 04:43:00,
2013-04-25 00:52:00,38.0,33.0,30.15,SW,215,1.0,2.0,83,0.00,,,0.00,,2013-04-25 04:52:00,
2013-04-25 01:02:00,37.0,33.0,30.15,SW,215,0.0,2.0,84,0.00,,,0.00,,2013-04-25 05:02:00,
2013-04-25 01:12:00,37.0,33.0,30.15,SW,215,0.0,2.0,84,0.00,,,0.00,,2013-04-25 05:12:00,
2013-04-25 01:21:00,37.0,33.0,30.16,SW,215,0.0,3.0,85,0.00,,,0.00,,2013-04-25 05:21:00,
2013-04-25 01:32:00,38.0,34.0,30.15,SW,215,0.0,2.0,85,0.00,,,0.00,,2013-04-25 05:32:00,
2013-04-25 01:42:00,38.0,34.0,30.15,SW,215,0.0,2.0,85,0.00,,,0.00,,2013-04-25 05:42:00,
2013-04-25 01:52:00,37.0,33.0,30.15,SW,215,1.0,3.0,86,0.00,,,0.00,,2013-04-25 05:52:00,
2013-04-25 02:02:00,37.0,33.0,30.14,SW,216,1.0,4.0,86,0.00,,,0.00,,2013-04-25 06:02:00,
2013-04-25 02:11:00,37.0,33.0,30.14,SW,216,1.0,4.0,86,0.00,,,0.00,,2013-04-25 06:11:00,
2013-04-25 02:22:00,37.0,33.0,30.14,SW,222,1.0,3.0,86,0.00,,,0.00,,2013-04-25 06:22:00,
2013-04-25 02:31:00,37.0,34.0,30.14,SW,221,1.0,3.0,87,0.00,,,0.00,,2013-04-25 06:31:00,
2013-04-25 02:42:00,37.0,34.0,30.14,SW,221,1.0,3.0,87,0.00,,,0.00,,2013-04-25 06:42:00,
2013-04-25 02:52:00,37.0,34.0,30.14,SW,221,1.0,3.0,87,0.00,,,0.00,,2013-04-25 06:52:00,
2013-04-25 03:01:00,37.0,34.0,30.13,SW,221,1.0,2.0,87,0.00,,,0.00,,2013-04-25 07:01:00,
2013-04-25 03:12:00,37.0,34.0,30.13,SW,221,1.0,2.0,87,0.00,,,0.00,,2013-04-25 07:12:00,
2013-04-25 03:22:00,37.0,34.0,30.13,SW,221,1.0,3.0,87,0.00,,,0.00,,2013-04-25 07:22:00,
2013-04-25 03:32:00,37.0,34.0,30.12,SW,221,1.0,3.0,87,0.00,,,0.00,,2013-04-25 07:32:00,
2013-04-25 03:42:00,37.0,34.0,30.12,SW,221,1.0,3.0,87,0.00,,,0.00,,2013-04-25 07:42:00,
2013-04-25 03:52:00,36.0,33.0,30.13,SW,221,1.0,3.0,87,0.00,,,0.00,,2013-04-25 07:52:00,
2013-04-25 04:01:00,36.0,33.0,30.13,SW,219,1.0,3.0,88,0.00,,,0.00,,2013-04-25 08:01:00,
2013-04-25 04:11:00,36.0,33.0,30.13,SW,219,1.0,3.0,88,0.00,,,0.00,,2013-04-25 08:11:00,
2013-04-25 04:21:00,36.0,33.0,30.11,SW,218,1.0,3.0,87,0.00,,,0.00,,2013-04-25 08:21:00,
2013-04-25 04:31:00,37.0,33.0,30.11,SW,225,1.0,3.0,86,0.00,,,0.00,,2013-04-25 08:31:00,
2013-04-25 04:42:00,37.0,33.0,30.11,SW,225,1.0,3.0,86,0.00,,,0.00,,2013-04-25 08:42:00,
2013-04-25 04:52:00,37.0,33.0,30.11,SW,224,1.0,3.0,86,0.00,,,0.00,,2013-04-25 08:52:00,
2013-04-25 05:01:00,37.0,33.0,30.11,SW,225,1.0,3.0,85,0.00,,,0.00,,2013-04-25 09:01:00,
2013-04-25 05:11:00,37.0,33.0,30.11,SW,225,1.0,3.0,85,0.00,,,0.00,,2013-04-25 09:11:00,
2013-04-25 05:21:00,37.0,33.0,30.11,SW,225,1.0,3.0,85,0.00,,,0.00,,2013-04-25 09:21:00,
2013-04-25 05:33:00,37.0,33.0,30.11,SW,215,0.0,3.0,86,0.00,,,0.00,,2013-04-25 09:33:00,
2013-04-25 05:42:00,37.0,33.0,30.11,SW,215,0.0,3.0,86,0.00,,,0.00,,2013-04-25 09:42:00,
2013-04-25 05:52:00,37.0,33.0,30.12,SSW,200,1.0,4.0,86,0.00,,,0.00,,2013-04-25 09:52:00,
2013-04-25 06:02:00,37.0,33.0,30.11,SSW,198,2.0,4.0,86,0.00,,,0.00,,2013-04-25 10:02:00,
2013-04-25 06:12:00,37.0,33.0,30.11,SSW,198,2.0,4.0,86,0.00,,,0.00,,2013-04-25 10:12:00,
2013-04-25 06:22:00,37.0,33.0,30.11,SW,223,2.0,5.0,85,0.00,,,0.00,,2013-04-25 10:22:00,
2013-04-25 06:32:00,37.0,33.0,30.11,SW,217,1.0,3.0,85,0.00,,,0.00,,2013-04-25 10:32:00,
2013-04-25 06:42:00,37.0,33.0,30.11,SW,217,1.0,3.0,85,0.00,,,0.00,,2013-04-25 10:42:00,
2013-04-25 06:53:00,37.0,33.0,30.11,SW,217,2.0,4.0,86,0.00,,,0.00,,2013-04-25 10:53:00,
2013-04-25 07:02:00,37.0,33.0,30.11,SW,216,2.0,5.0,86,0.00,,,0.00,,2013-04-25 11:02:00,
2013-04-25 07:12:00,37.0,33.0,30.11,SW,216,2.0,5.0,86,0.00,,,0.00,,2013-04-25 11:12:00,
2013-04-25 07:22:00,37.0,33.0,30.10,SW,216,1.0,4.0,86,0.00,,,0.00,,2013-04-25 11:22:00,
2013-04-25 07:32:00,38.0,34.0,30.10,SW,223,3.0,5.0,86,0.00,,,0.00,,2013-04-25 11:32:00,
2013-04-25 07:42:00,38.0,34.0,30.10,SW,223,3.0,5.0,86,0.00,,,0.00,,2013-04-25 11:42:00,
2013-04-25 07:52:00,39.0,35.0,30.10,SW,221,3.0,6.0,85,0.00,,,0.00,,2013-04-25 11:52:00,
2013-04-25 08:01:00,39.0,35.0,30.11,SW,217,3.0,5.0,84,0.00,,,0.00,,2013-04-25 12:01:00,
2013-04-25 08:12:00,39.0,35.0,30.11,SW,217,3.0,5.0,84,0.00,,,0.00,,2013-04-25 12:12:00,
2013-04-25 08:21:00,40.0,36.0,30.11,SSW,207,3.0,7.0,84,0.00,,,0.00,,2013-04-25 12:21:00,
2013-04-25 08:31:00,40.0,36.0,30.11,WSW,255,4.0,11.0,85,0.00,,,0.00,,2013-04-25 12:31:00,
2013-04-25 08:42:00,40.0,36.0,30.11,WSW,255,4.0,11.0,85,0.00,,,0.00,,2013-04-25 12:42:00,
2013-04-25 08:52:00,40.0,36.0,30.11,SSW,207,4.0,7.0,85,0.00,,,0.00,,2013-04-25 12:52:00,
2013-04-25 09:02:00,41.0,37.0,30.11,SSW,213,3.0,7.0,84,0.00,,,0.00,,2013-04-25 13:02:00,
2013-04-25 09:11:00,41.0,37.0,30.11,SSW,213,3.0,7.0,84,0.00,,,0.00,,2013-04-25 13:11:00,
2013-04-25 09:21:00,41.0,36.0,30.12,SW,228,4.0,7.0,82,0.00,,,0.00,,2013-04-25 13:21:00,
2013-04-25 09:32:00,42.0,37.0,30.13,West,260,3.0,7.0,81,0.00,,,0.00,,2013-04-25 13:32:00,
2013-04-25 09:42:00,42.0,37.0,30.13,West,260,3.0,7.0,81,0.00,,,0.00,,2013-04-25 13:42:00,
2013-04-25 09:52:00,43.0,37.0,30.13,SSW,213,4.0,9.0,80,0.00,,,0.00,,2013-04-25 13:52:00,
2013-04-25 10:01:00,44.0,38.0,30.12,SW,223,3.0,9.0,78,0.00,,,0.00,,2013-04-25 14:01:00,
2013-04-25 10:11:00,44.0,38.0,30.12,SW,223,3.0,9.0,78,0.00,,,0.00,,2013-04-25 14:11:00,
2013-04-25 10:21:00,46.0,38.0,30.12,WSW,244,5.0,9.0,74,0.00,,,0.00,,2013-04-25 14:21:00,
2013-04-25 10:32:00,47.0,39.0,30.12,ESE,103,4.0,11.0,73,0.00,,,0.00,,2013-04-25 14:32:00,
2013-04-25 10:42:00,47.0,39.0,30.12,ESE,103,4.0,11.0,73,0.00,,,0.00,,2013-04-25 14:42:00,
2013-04-25 10:52:00,46.0,39.0,30.13,SW,217,2.0,9.0,75,0.00,,,0.00,,2013-04-25 14:52:00,
2013-04-25 11:02:00,47.0,39.0,30.14,WSW,242,3.0,11.0,74,0.00,,,0.00,,2013-04-25 15:02:00,
2013-04-25 11:11:00,47.0,39.0,30.14,WSW,242,3.0,11.0,74,0.00,,,0.00,,2013-04-25 15:11:00,
2013-04-25 11:21:00,47.0,37.0,30.15,WSW,242,3.0,12.0,69,0.00,,,0.00,,2013-04-25 15:21:00,
2013-04-25 11:33:00,46.0,37.0,30.15,NNE,21,2.0,10.0,70,0.00,,,0.00,,2013-04-25 15:33:00,
2013-04-25 11:42:00,46.0,37.0,30.15,NNE,21,2.0,10.0,70,0.00,,,0.00,,2013-04-25 15:42:00,
2013-04-25 11:53:00,47.0,38.0,30.16,NNE,15,3.0,10.0,70,0.00,,,0.00,,2013-04-25 15:53:00,
2013-04-25 12:02:00,44.0,36.0,30.17,WNW,289,3.0,8.0,72,0.00,,,0.00,,2013-04-25 16:02:00,
2013-04-25 12:13:00,44.0,36.0,30.17,WNW,289,3.0,8.0,72,0.00,,,0.00,,2013-04-25 16:13:00,
2013-04-25 12:24:00,48.0,34.0,30.17,North,5,3.0,14.0,59,0.00,,,0.00,,2013-04-25 16:24:00,
2013-04-25 12:32:00,48.0,34.0,30.18,NNE,30,4.0,12.0,57,0.00,,,0.00,,2013-04-25 16:32:00,
2013-04-25 12:42:00,48.0,34.0,30.18,NNE,30,4.0,12.0,57,0.00,,,0.00,,2013-04-25 16:42:00,
2013-04-25 12:52:00,49.0,35.0,30.18,SW,219,3.0,8.0,59,0.00,,,0.00,,2013-04-25 16:52:00,
2013-04-25 13:02:00,49.0,34.0,30.19,NNW,346,0.0,8.0,57,0.00,,,0.00,,2013-04-25 17:02:00,
2013-04-25 13:11:00,49.0,34.0,30.19,NNW,346,0.0,8.0,57,0.00,,,0.00,,2013-04-25 17:11:00,
2013-04-25 13:22:00,48.0,37.0,30.20,NNE,24,2.0,9.0,65,0.00,,,0.00,,2013-04-25 17:22:00,
2013-04-25 13:32:00,49.0,36.0,30.21,NNE,31,2.0,6.0,61,0.00,,,0.00,,2013-04-25 17:32:00,
2013-04-25 13:42:00,49.0,36.0,30.21,NNE,31,2.0,6.0,61,0.00,,,0.00,,2013-04-25 17:42:00,
2013-04-25 13:53:00,48.0,35.0,30.21,NE,34,2.0,6.0,60,0.00,,,0.00,,2013-04-25 17:53:00,
2013-04-25 14:01:00,47.0,35.0,30.21,NNE,25,1.0,9.0,62,0.00,,,0.00,,2013-04-25 18:01:00,
2013-04-25 14:11:00,47.0,35.0,30.21,NNE,25,1.0,9.0,62,0.00,,,0.00,,2013-04-25 18:11:00,
2013-04-25 14:22:00,48.0,35.0,30.22,NNW,338,1.0,8.0,60,0.00,,,0.00,,2013-04-25 18:22:00,
2013-04-25 14:32:00,51.0,36.0,30.22,NE,37,2.0,7.0,57,0.00,,,0.00,,2013-04-25 18:32:00,
2013-04-25 14:42:00,51.0,36.0,30.22,NE,37,2.0,7.0,57,0.00,,,0.00,,2013-04-25 18:42:00,
2013-04-25 14:53:00,50.0,36.0,30.23,North,355,2.0,8.0,58,0.00,,,0.00,,2013-04-25 18:53:00,
2013-04-25 15:01:00,52.0,37.0,30.23,NE,34,2.0,8.0,57,0.00,,,0.00,,2013-04-25 19:01:00,
2013-04-25 15:12:00,52.0,37.0,30.23,NE,34,2.0,8.0,57,0.00,,,0.00,,2013-04-25 19:12:00,
2013-04-25 15:21:00,51.0,35.0,30.24,ENE,61,2.0,10.0,55,0.00,,,0.00,,2013-04-25 19:21:00,
2013-04-25 15:31:00,50.0,35.0,30.24,North,349,2.0,7.0,57,0.00,,,0.00,,2013-04-25 19:31:00,
2013-04-25 15:42:00,50.0,35.0,30.24,North,349,2.0,7.0,57,0.00,,,0.00,,2013-04-25 19:42:00,
2013-04-25 15:52:00,52.0,36.0,30.24,NE,43,2.0,7.0,55,0.00,,,0.00,,2013-04-25 19:52:00,
2013-04-25 16:02:00,53.0,35.0,30.24,NNE,22,2.0,4.0,51,0.00,,,0.00,,2013-04-25 20:02:00,
2013-04-25 16:11:00,53.0,35.0,30.24,NNE,22,2.0,4.0,51,0.00,,,0.00,,2013-04-25 20:11:00,
2013-04-25 16:22:00,52.0,35.0,30.24,NE,34,2.0,6.0,52,0.00,,,0.00,,2013-04-25 20:22:00,
2013-04-25 16:32:00,52.0,36.0,30.24,NNW,348,1.0,5.0,54,0.00,,,0.00,,2013-04-25 20:32:00,
2013-04-25 16:42:00,52.0,36.0,30.24,NNW,348,1.0,5.0,54,0.00,,,0.00,,2013-04-25 20:42:00,
2013-04-25 16:52:00,52.0,36.0,30.24,NW,313,1.0,7.0,55,0.00,,,0.00,,2013-04-25 20:52:00,
2013-04-25 17:01:00,51.0,35.0,30.24,NNE,24,2.0,7.0,54,0.00,,,0.00,,2013-04-25 21:01:00,
2013-04-25 17:11:00,51.0,35.0,30.24,NNE,24,2.0,7.0,54,0.00,,,0.00,,2013-04-25 21:11:00,
2013-04-25 17:21:00,50.0,34.0,30.26,NNE,26,1.0,8.0,55,0.00,,,0.00,,2013-04-25 21:21:00,
2013-04-25 17:33:00,50.0,34.0,30.26,NNE,20,0.0,8.0,54,0.00,,,0.00,,2013-04-25 21:33:00,
2013-04-25 17:42:00,50.0,34.0,30.26,NNE,20,0.0,8.0,54,0.00,,,0.00,,2013-04-25 21:42:00,
2013-04-25 17:52:00,51.0,36.0,30.27,North,9,1.0,6.0,57,0.00,,,0.00,,2013-04-25 21:52:00,
2013-04-25 18:02:00,50.0,35.0,30.27,North,5,1.0,8.0,56,0.00,,,0.00,,2013-04-25 22:02:00,
2013-04-25 18:12:00,50.0,35.0,30.27,North,5,1.0,8.0,56,0.00,,,0.00,,2013-04-25 22:12:00,
2013-04-25 18:22:00,50.0,35.0,30.26,NW,311,0.0,3.0,57,0.00,,,0.00,,2013-04-25 22:22:00,
2013-04-25 18:33:00,50.0,34.0,30.27,North,355,0.0,5.0,55,0.00,,,0.00,,2013-04-25 22:33:00,
2013-04-25 18:42:00,50.0,34.0,30.27,North,355,0.0,5.0,55,0.00,,,0.00,,2013-04-25 22:42:00,
2013-04-25 18:52:00,50.0,33.0,30.27,NW,323,1.0,5.0,52,0.00,,,0.00,,2013-04-25 22:52:00,
2013-04-25 19:02:00,50.0,34.0,30.28,NE,40,0.0,4.0,54,0.00,,,0.00,,2013-04-25 23:02:00,
2013-04-25 19:12:00,50.0,34.0,30.28,NE,40,0.0,4.0,54,0.00,,,0.00,,2013-04-25 23:12:00,
2013-04-25 19:22:00,49.0,34.0,30.28,NNE,22,0.0,3.0,55,0.00,,,0.00,,2013-04-25 23:22:00,
2013-04-25 19:32:00,49.0,34.0,30.28,NNE,22,0.0,3.0,55,0.00,,,0.00,,2013-04-25 23:32:00,
2013-04-25 19:42:00,49.0,34.0,30.28,NNE,22,0.0,3.0,55,0.00,,,0.00,,2013-04-25 23:42:00,
2013-04-25 19:52:00,49.0,34.0,30.29,NW,311,1.0,5.0,55,0.00,,,0.00,,2013-04-25 23:52:00,
2013-04-25 20:01:00,48.0,34.0,30.29,NNW,327,0.0,4.0,58,0.00,,,0.00,,2013-04-26 00:01:00,
2013-04-25 20:11:00,48.0,34.0,30.29,NNW,327,0.0,4.0,58,0.00,,,0.00,,2013-04-26 00:11:00,
2013-04-25 20:21:00,48.0,34.0,30.29,NNW,327,0.0,1.0,58,0.00,,,0.00,,2013-04-26 00:21:00,
2013-04-25 20:32:00,48.0,34.0,30.29,NW,324,0.0,2.0,58,0.00,,,0.00,,2013-04-26 00:32:00,
2013-04-25 20:41:00,48.0,34.0,30.29,NW,324,0.0,2.0,58,0.00,,,0.00,,2013-04-26 00:41:00,
2013-04-25 20:51:00,47.0,33.0,30.29,NNW,327,0.0,5.0,59,0.00,,,0.00,,2013-04-26 00:51:00,
2013-04-25 21:01:00,46.0,33.0,30.30,NW,325,0.0,2.0,60,0.00,,,0.00,,2013-04-26 01:01:00,
2013-04-25 21:11:00,46.0,33.0,30.30,NW,325,0.0,2.0,60,0.00,,,0.00,,2013-04-26 01:11:00,
2013-04-25 21:21:00,46.0,33.0,30.30,NW,324,0.0,1.0,61,0.00,,,0.00,,2013-04-26 01:21:00,
2013-04-25 21:31:00,45.0,32.0,30.30,NW,324,0.0,1.0,61,0.00,,,0.00,,2013-04-26 01:31:00,
2013-04-25 21:42:00,45.0,32.0,30.30,NW,324,0.0,1.0,61,0.00,,,0.00,,2013-04-26 01:42:00,
2013-04-25 21:52:00,44.0,34.0,30.31,NW,324,0.0,0.0,67,0.00,,,0.00,,2013-04-26 01:52:00,
2013-04-25 22:02:00,43.0,33.0,30.32,NW,324,0.0,0.0,67,0.00,,,0.00,,2013-04-26 02:02:00,
2013-04-25 22:11:00,43.0,33.0,30.32,NW,324,0.0,0.0,67,0.00,,,0.00,,2013-04-26 02:11:00,
2013-04-25 22:21:00,42.0,33.0,30.32,NW,324,0.0,0.0,71,0.00,,,0.00,,2013-04-26 02:21:00,
2013-04-25 22:32:00,42.0,34.0,30.33,NW,324,0.0,0.0,73,0.00,,,0.00,,2013-04-26 02:32:00,
2013-04-25 22:42:00,42.0,34.0,30.33,NW,324,0.0,0.0,73,0.00,,,0.00,,2013-04-26 02:42:00,
2013-04-25 22:51:00,41.0,34.0,30.34,NW,324,0.0,0.0,75,0.00,,,0.00,,2013-04-26 02:51:00,
2013-04-25 23:01:00,41.0,34.0,30.34,NW,324,0.0,1.0,77,0.00,,,0.00,,2013-04-26 03:01:00,
2013-04-25 23:11:00,41.0,34.0,30.34,NW,324,0.0,1.0,77,0.00,,,0.00,,2013-04-26 03:11:00,
2013-04-25 23:21:00,40.0,35.0,30.34,NW,324,0.0,0.0,81,0.00,,,0.00,,2013-04-26 03:21:00,
2013-04-25 23:33:00,40.0,35.0,30.34,NW,324,0.0,0.0,82,0.00,,,0.00,,2013-04-26 03:33:00,
2013-04-25 23:43:00,40.0,35.0,30.34,NW,324,0.0,0.0,82,0.00,,,0.00,,2013-04-26 03:43:00,
2013-04-25 23:53:00,40.0,34.0,30.34,NW,324,0.0,0.0,79,0.00,,,0.00,,2013-04-26 03:53:00,